createdAt,value
2022-11-13T00:00:22.200Z,91.20
2022-11-13T00:03:43.402Z,91.20
2022-11-13T00:07:04.119Z,91.20
2022-11-13T00:10:25.043Z,91.20
2022-11-13T00:13:47.181Z,91.10
2022-11-13T00:17:07.856Z,91.10
2022-11-13T00:20:28.351Z,91.10
2022-11-13T00:23:49.451Z,91.10
2022-11-13T00:27:10.191Z,91.10
2022-11-13T00:30:30.913Z,91.00
2022-11-13T00:34:13.906Z,91.00
2022-11-13T00:37:33.461Z,91.00
2022-11-13T00:40:54.165Z,91.00
2022-11-13T00:44:14.955Z,91.00
2022-11-13T00:47:35.822Z,90.90
2022-11-13T00:50:56.473Z,90.90
2022-11-13T00:54:17.288Z,90.90
2022-11-13T00:57:38.291Z,90.90
2022-11-13T01:01:15.757Z,90.80
2022-11-13T01:04:36.573Z,90.80
2022-11-13T01:07:57.890Z,90.80
2022-11-13T01:11:21.937Z,90.70
2022-11-13T01:14:42.739Z,90.70
2022-11-13T01:18:03.650Z,90.60
2022-11-13T01:21:27.570Z,90.60
2022-11-13T01:24:48.692Z,90.60
2022-11-13T01:28:09.778Z,90.60
2022-11-13T01:31:31.471Z,90.50
2022-11-13T01:34:52.510Z,90.50
2022-11-13T01:38:13.038Z,90.50
2022-11-13T01:41:34.689Z,90.40
2022-11-13T01:45:01.040Z,90.40
2022-11-13T01:48:22.655Z,90.30
2022-11-13T01:51:55.952Z,90.30
2022-11-13T01:55:18.903Z,90.20
2022-11-13T01:58:41.223Z,90.20
2022-11-13T02:02:02.558Z,90.10
2022-11-13T02:05:23.260Z,90.10
2022-11-13T02:08:44.688Z,90.00
2022-11-13T02:12:08.947Z,90.00
2022-11-13T02:15:33.212Z,89.90
2022-11-13T02:18:54.464Z,89.70
2022-11-13T02:22:59.707Z,89.70
2022-11-13T02:26:23.969Z,89.60
2022-11-13T02:29:44.963Z,89.40
2022-11-13T02:33:40.802Z,89.20
2022-11-13T02:37:01.521Z,89.30
2022-11-13T02:40:23.759Z,88.80
2022-11-13T02:43:44.366Z,88.70
2022-11-13T02:47:05.327Z,88.70
2022-11-13T02:50:27.013Z,88.70
2022-11-13T02:53:47.988Z,88.50
2022-11-13T02:57:08.893Z,88.20
2022-11-13T03:00:30.174Z,88.00
2022-11-13T03:03:58.635Z,87.80
2022-11-13T03:07:20.158Z,87.60
2022-11-13T03:10:40.864Z,87.70
2022-11-13T03:14:01.930Z,87.30
2022-11-13T03:17:22.843Z,87.30
2022-11-13T03:20:44.290Z,87.10
2022-11-13T03:24:05.280Z,87.10
2022-11-13T03:27:26.357Z,87.00
2022-11-13T03:30:48.032Z,86.90
2022-11-13T03:34:09.531Z,86.70
2022-11-13T03:37:30.118Z,86.70
2022-11-13T03:40:51.394Z,86.60
2022-11-13T03:44:12.936Z,86.60
2022-11-13T03:47:33.925Z,86.60
2022-11-13T03:50:55.952Z,86.40
2022-11-13T03:54:16.421Z,86.30
2022-11-13T03:57:36.905Z,86.20
2022-11-13T04:00:58.184Z,86.00
2022-11-13T04:04:19.227Z,85.60
2022-11-13T04:07:39.897Z,85.30
2022-11-13T04:11:11.255Z,85.20
2022-11-13T04:14:32.200Z,85.10
2022-11-13T04:17:53.183Z,84.70
2022-11-13T04:21:13.707Z,84.70
2022-11-13T04:24:34.138Z,84.30
2022-11-13T04:27:54.622Z,84.50
2022-11-13T04:31:15.780Z,84.10
2022-11-13T04:34:37.090Z,84.00
2022-11-13T04:37:58.260Z,84.00
2022-11-13T04:41:37.858Z,84.00
2022-11-13T04:44:58.611Z,83.50
2022-11-13T04:48:19.811Z,83.40
2022-11-13T04:51:40.818Z,83.00
2022-11-13T04:55:01.804Z,82.80
2022-11-13T04:58:22.513Z,82.80
2022-11-13T05:01:43.622Z,82.70
2022-11-13T05:05:05.595Z,82.40
2022-11-13T05:08:26.901Z,82.30
2022-11-13T05:11:47.949Z,82.00
2022-11-13T05:15:09.111Z,82.00
2022-11-13T05:18:31.127Z,81.90
2022-11-13T05:21:52.340Z,81.60
2022-11-13T05:25:13.208Z,81.80
2022-11-13T05:28:34.074Z,82.20
2022-11-13T05:31:54.546Z,81.30
2022-11-13T05:35:16.031Z,81.20
2022-11-13T05:38:37.208Z,81.10
2022-11-13T05:41:58.224Z,81.30
2022-11-13T05:45:19.245Z,81.90
2022-11-13T05:48:40.591Z,81.50
2022-11-13T05:52:01.489Z,81.10
2022-11-13T05:55:23.526Z,81.10
2022-11-13T05:58:44.912Z,81.00
2022-11-13T06:02:06.005Z,81.10
2022-11-13T06:05:26.694Z,81.00
2022-11-13T06:08:48.713Z,81.20
2022-11-13T06:12:09.557Z,81.10
2022-11-13T06:15:30.203Z,81.10
2022-11-13T06:18:54.487Z,81.10
2022-11-13T06:22:14.962Z,81.10
2022-11-13T06:25:35.374Z,81.10
2022-11-13T06:28:56.313Z,81.40
2022-11-13T06:32:16.751Z,81.10
2022-11-13T06:35:38.427Z,81.10
2022-11-13T06:38:59.862Z,80.90
2022-11-13T06:42:20.705Z,81.00
2022-11-13T06:45:41.558Z,81.00
2022-11-13T06:49:02.488Z,81.00
2022-11-13T06:52:23.224Z,80.80
2022-11-13T06:55:45.731Z,80.80
2022-11-13T06:59:08.565Z,81.00
2022-11-13T07:02:29.572Z,80.90
2022-11-13T07:05:51.325Z,80.70
2022-11-13T07:09:12.193Z,80.80
2022-11-13T07:12:32.654Z,80.60
2022-11-13T07:15:53.420Z,80.70
2022-11-13T07:19:14.152Z,80.80
2022-11-13T07:22:34.646Z,80.90
2022-11-13T07:25:55.841Z,80.80
2022-11-13T07:29:16.363Z,80.90
2022-11-13T07:32:37.425Z,81.00
2022-11-13T07:35:58.440Z,80.80
2022-11-13T07:39:18.951Z,81.10
2022-11-13T07:42:40.300Z,80.90
2022-11-13T07:46:01.972Z,80.70
2022-11-13T07:49:22.440Z,80.80
2022-11-13T07:52:43.445Z,80.70
2022-11-13T07:56:04.205Z,80.50
2022-11-13T07:59:24.954Z,80.40
2022-11-13T08:02:47.882Z,80.60
2022-11-13T08:06:08.928Z,80.30
2022-11-13T08:09:29.361Z,80.30
2022-11-13T08:12:57.337Z,80.30
2022-11-13T08:16:18.236Z,80.30
2022-11-13T08:19:39.159Z,80.10
2022-11-13T08:23:01.235Z,80.00
2022-11-13T08:26:21.948Z,80.10
2022-11-13T08:29:42.940Z,80.10
2022-11-13T08:33:04.193Z,79.90
2022-11-13T08:36:24.964Z,79.80
2022-11-13T08:39:45.482Z,80.10
2022-11-13T08:43:05.942Z,79.90
2022-11-13T08:46:26.786Z,80.20
2022-11-13T08:49:47.534Z,79.90
2022-11-13T08:53:08.759Z,79.80
2022-11-13T08:56:29.404Z,79.70
2022-11-13T08:59:49.857Z,79.60
2022-11-13T09:03:12.461Z,79.60
2022-11-13T09:06:34.282Z,79.80
2022-11-13T09:09:54.847Z,79.60
2022-11-13T09:13:15.318Z,79.40
2022-11-13T09:16:36.078Z,79.40
2022-11-13T09:20:03.519Z,79.40
2022-11-13T09:23:24.965Z,79.20
2022-11-13T09:26:45.497Z,79.40
2022-11-13T09:30:06.508Z,79.40
2022-11-13T09:33:27.355Z,79.40
2022-11-13T09:36:47.761Z,79.30
2022-11-13T09:40:18.001Z,79.30
2022-11-13T09:43:44.930Z,79.20
2022-11-13T09:47:19.767Z,79.30
2022-11-13T09:50:41.294Z,79.60
2022-11-13T09:54:06.567Z,79.50
2022-11-13T09:57:48.703Z,79.40
2022-11-13T10:01:16.571Z,79.50
2022-11-13T10:04:58.001Z,79.50
2022-11-13T10:08:58.340Z,79.40
2022-11-13T10:12:19.158Z,79.60
2022-11-13T10:15:42.896Z,79.70
2022-11-13T10:19:23.756Z,79.40
2022-11-13T10:23:26.640Z,80.40
2022-11-13T10:26:47.481Z,79.60
2022-11-13T10:30:18.999Z,79.60
2022-11-13T10:33:40.091Z,79.60
2022-11-13T10:37:21.722Z,79.60
2022-11-13T10:40:42.749Z,79.60
2022-11-13T10:44:35.580Z,79.40
2022-11-13T10:48:04.225Z,79.50
2022-11-13T10:51:31.615Z,79.60
2022-11-13T10:55:21.470Z,80.30
2022-11-13T10:58:42.586Z,79.70
2022-11-13T11:02:17.968Z,79.60
2022-11-13T11:05:38.772Z,80.00
2022-11-13T11:09:25.728Z,79.70
2022-11-13T11:12:53.471Z,80.10
2022-11-13T11:16:23.927Z,79.80
2022-11-13T11:19:49.717Z,80.00
2022-11-13T11:23:25.405Z,79.90
2022-11-13T11:27:12.591Z,80.00
2022-11-13T11:30:42.643Z,80.10
2022-11-13T11:34:26.284Z,80.00
2022-11-13T11:37:52.100Z,79.70
2022-11-13T11:41:16.860Z,79.80
2022-11-13T11:45:01.590Z,79.70
2022-11-13T11:48:27.183Z,79.60
2022-11-13T11:52:13.884Z,80.30
2022-11-13T11:56:01.401Z,79.60
2022-11-13T11:59:55.946Z,79.80
2022-11-13T12:03:45.556Z,79.70
2022-11-13T12:07:15.106Z,79.80
2022-11-13T12:11:27.602Z,79.90
2022-11-13T12:15:24.108Z,80.00
2022-11-13T12:19:15.914Z,79.90
2022-11-13T12:22:43.862Z,80.00
2022-11-13T12:26:26.858Z,80.00
2022-11-13T12:29:47.389Z,80.20
2022-11-13T12:33:29.066Z,80.20
2022-11-13T12:36:50.516Z,80.10
2022-11-13T12:40:44.275Z,80.00
2022-11-13T12:44:28.947Z,80.30
2022-11-13T12:47:52.215Z,80.20
2022-11-13T12:51:15.345Z,80.20
2022-11-13T12:54:37.814Z,80.30
2022-11-13T12:58:26.380Z,80.40
2022-11-13T13:02:07.801Z,80.30
2022-11-13T13:06:00.959Z,80.30
2022-11-13T13:09:45.109Z,80.40
2022-11-13T13:13:33.141Z,80.40
2022-11-13T13:17:06.139Z,80.50
2022-11-13T13:20:41.988Z,80.40
2022-11-13T13:24:27.141Z,80.50
2022-11-13T13:28:03.184Z,80.60
2022-11-13T13:31:37.589Z,80.50
2022-11-13T13:35:05.665Z,80.50
2022-11-13T13:38:32.359Z,80.60
2022-11-13T13:42:11.089Z,80.60
2022-11-13T13:45:58.298Z,80.70
2022-11-13T13:49:22.623Z,80.60
2022-11-13T13:52:44.938Z,80.60
2022-11-13T13:56:11.580Z,80.60
2022-11-13T13:59:36.057Z,80.70
2022-11-13T14:02:56.671Z,80.60
2022-11-13T14:06:23.015Z,80.60
2022-11-13T14:09:44.038Z,80.60
2022-11-13T14:13:04.833Z,80.70
2022-11-13T14:16:25.539Z,80.60
2022-11-13T14:19:51.233Z,80.60
2022-11-13T14:23:15.337Z,80.50
2022-11-13T14:26:36.288Z,80.50
2022-11-13T14:30:02.268Z,80.50
2022-11-13T14:33:41.601Z,80.60
2022-11-13T14:37:29.424Z,80.60
2022-11-13T14:40:50.602Z,80.60
2022-11-13T14:44:12.511Z,80.60
2022-11-13T14:47:37.693Z,80.60
2022-11-13T14:51:07.162Z,80.60
2022-11-13T14:58:28.204Z,80.80
2022-11-13T15:01:56.363Z,80.80
2022-11-13T15:05:17.785Z,80.80
2022-11-13T15:08:39.099Z,80.70
2022-11-13T15:12:00.026Z,80.80
2022-11-13T15:15:27.150Z,80.80
2022-11-13T15:19:41.480Z,80.80
2022-11-13T15:23:01.990Z,80.90
2022-11-13T15:26:22.604Z,80.90
2022-11-13T15:29:44.732Z,80.90
2022-11-13T15:33:14.488Z,80.90
2022-11-13T15:36:35.327Z,80.90
2022-11-13T15:39:56.054Z,81.00
2022-11-13T15:43:22.617Z,80.90
2022-11-13T15:46:43.072Z,81.00
2022-11-13T15:50:14.507Z,81.00
2022-11-13T15:53:35.850Z,81.00
2022-11-13T15:56:56.437Z,81.00
2022-11-13T16:00:21.608Z,81.10
2022-11-13T16:03:42.289Z,81.00
2022-11-13T16:07:04.481Z,81.10
2022-11-13T16:10:25.573Z,81.00
2022-11-13T16:13:46.890Z,81.00
2022-11-13T16:17:16.777Z,81.10
2022-11-13T16:20:37.506Z,81.00
2022-11-13T16:23:58.442Z,81.00
2022-11-13T16:27:30.412Z,81.00
2022-11-13T16:30:51.282Z,81.00
2022-11-13T16:34:12.173Z,81.00
2022-11-13T16:37:32.909Z,80.90
2022-11-13T16:40:53.353Z,80.90
2022-11-13T16:44:13.660Z,80.90
2022-11-13T16:47:34.770Z,81.10
2022-11-13T16:50:55.257Z,81.00
2022-11-13T16:54:16.156Z,80.80
2022-11-13T16:57:38.073Z,80.90
2022-11-13T17:01:00.334Z,80.90
2022-11-13T17:04:21.765Z,80.90
2022-11-13T17:07:42.859Z,81.00
2022-11-13T17:11:03.884Z,81.00
2022-11-13T17:14:24.460Z,80.90
2022-11-13T17:17:45.525Z,80.90
2022-11-13T17:21:06.724Z,80.90
2022-11-13T17:24:27.484Z,80.90
2022-11-13T17:27:48.409Z,80.90
2022-11-13T17:31:12.778Z,80.90
2022-11-13T17:34:33.812Z,80.80
2022-11-13T17:37:54.557Z,81.00
2022-11-13T17:41:16.133Z,80.90
2022-11-13T17:44:36.841Z,80.80
2022-11-13T17:47:58.303Z,80.80
2022-11-13T17:51:18.763Z,80.80
2022-11-13T17:54:39.191Z,80.80
2022-11-13T17:58:02.622Z,80.80
2022-11-13T18:01:23.664Z,80.80
2022-11-13T18:04:44.408Z,80.70
2022-11-13T18:08:06.202Z,80.80
2022-11-13T18:11:28.715Z,80.80
2022-11-13T18:14:52.601Z,80.80
2022-11-13T18:18:13.307Z,80.80
2022-11-13T18:21:35.877Z,80.80
2022-11-13T18:24:57.038Z,80.80
2022-11-13T18:28:17.942Z,80.80
2022-11-13T18:31:38.474Z,80.80
2022-11-13T18:34:59.205Z,80.80
2022-11-13T18:38:20.168Z,80.80
2022-11-13T18:41:40.766Z,80.80
2022-11-13T18:45:05.678Z,80.80
2022-11-13T18:48:31.175Z,80.80
2022-11-13T18:51:51.627Z,80.90
2022-11-13T18:55:12.066Z,80.80
2022-11-13T18:58:35.387Z,80.90
2022-11-13T19:01:56.424Z,80.90
2022-11-13T19:05:17.092Z,80.90
2022-11-13T19:08:40.843Z,80.90
2022-11-13T19:12:01.837Z,80.90
2022-11-13T19:15:22.611Z,81.00
2022-11-13T19:18:44.830Z,81.00
2022-11-13T19:22:05.748Z,81.00
2022-11-13T19:25:26.942Z,81.00
2022-11-13T19:28:49.361Z,81.00
2022-11-13T19:32:09.951Z,81.10
2022-11-13T19:35:31.024Z,81.10
2022-11-13T19:38:52.839Z,81.10
2022-11-13T19:42:13.434Z,81.10
2022-11-13T19:45:36.031Z,81.20
2022-11-13T19:49:00.034Z,81.30
2022-11-13T19:52:20.764Z,81.30
2022-11-13T19:55:41.897Z,81.30
2022-11-13T19:59:02.699Z,81.30
2022-11-13T20:02:24.366Z,81.40
2022-11-13T20:05:45.598Z,81.50
2022-11-13T20:09:06.815Z,81.60
2022-11-13T20:12:29.726Z,81.50
2022-11-13T20:15:54.825Z,81.50
2022-11-13T20:19:15.755Z,81.60
2022-11-13T20:22:36.441Z,81.60
2022-11-13T20:25:59.986Z,81.70
2022-11-13T20:29:20.618Z,81.70
2022-11-13T20:32:41.569Z,81.80
2022-11-13T20:36:03.963Z,82.00
2022-11-13T20:39:24.744Z,82.00
2022-11-13T20:42:45.191Z,82.00
2022-11-13T20:46:13.925Z,82.10
2022-11-13T20:49:34.417Z,82.20
2022-11-13T20:52:55.169Z,82.30
2022-11-13T20:56:17.453Z,82.30
2022-11-13T20:59:38.086Z,82.40
2022-11-13T21:02:58.733Z,82.40
2022-11-13T21:06:21.750Z,82.60
2022-11-13T21:09:46.002Z,82.60
2022-11-13T21:13:09.130Z,82.70
2022-11-13T21:16:30.811Z,82.70
2022-11-13T21:19:56.383Z,82.90
2022-11-13T21:23:18.100Z,82.90
2022-11-13T21:26:39.091Z,82.90
2022-11-13T21:29:59.656Z,83.00
2022-11-13T21:33:20.575Z,83.10
2022-11-13T21:36:41.014Z,83.10
2022-11-13T21:40:01.511Z,83.20
2022-11-13T21:43:22.119Z,83.20
2022-11-13T21:46:42.555Z,83.30
2022-11-13T21:50:04.198Z,83.30
2022-11-13T21:53:25.026Z,83.30
2022-11-13T21:56:45.642Z,83.40
2022-11-13T22:00:06.818Z,83.40
2022-11-13T22:03:29.205Z,83.50
2022-11-13T22:06:51.220Z,83.50
2022-11-13T22:10:11.927Z,83.50
2022-11-13T22:13:32.882Z,83.50
2022-11-13T22:16:53.870Z,83.60
2022-11-13T22:20:15.189Z,83.60
2022-11-13T22:23:36.512Z,83.60
2022-11-13T22:26:57.550Z,83.70
2022-11-13T22:30:18.338Z,83.70
2022-11-13T22:33:42.387Z,83.70
2022-11-13T22:37:06.082Z,83.80
2022-11-13T22:40:26.605Z,83.80
2022-11-13T22:43:51.107Z,83.80
2022-11-13T22:47:11.550Z,83.90
2022-11-13T22:50:34.483Z,84.00
2022-11-13T22:54:00.440Z,83.90
2022-11-13T22:57:21.020Z,84.00
2022-11-13T23:00:41.639Z,84.00
2022-11-13T23:04:05.450Z,84.00
2022-11-13T23:07:25.949Z,84.10
2022-11-13T23:10:55.208Z,84.20
2022-11-13T23:14:16.062Z,84.20
2022-11-13T23:17:36.872Z,84.20
2022-11-13T23:20:57.582Z,84.20
2022-11-13T23:24:18.276Z,84.30
2022-11-13T23:27:38.781Z,84.20
2022-11-13T23:30:59.258Z,84.30
2022-11-13T23:34:38.354Z,84.40
2022-11-13T23:38:00.798Z,84.40
2022-11-13T23:41:21.847Z,84.40
2022-11-13T23:44:42.992Z,84.40
2022-11-13T23:48:04.330Z,84.40
2022-11-13T23:51:24.651Z,84.50
2022-11-13T23:54:45.184Z,84.50
2022-11-13T23:58:10.024Z,84.60
